createdAt,value
2023-03-19T00:00:49.167Z,8.13
2023-03-19T00:03:16.680Z,8.12
2023-03-19T00:05:54.073Z,8.15
2023-03-19T00:08:22.922Z,8.24
2023-03-19T00:10:51.128Z,8.25
2023-03-19T00:13:20.142Z,8.24
2023-03-19T00:15:47.711Z,8.17
2023-03-19T00:18:15.408Z,8.24
2023-03-19T00:20:43.762Z,8.17
2023-03-19T00:23:11.349Z,8.15
2023-03-19T00:25:38.788Z,8.12
2023-03-19T00:28:06.409Z,8.20
2023-03-19T00:30:34.400Z,8.24
2023-03-19T00:33:03.125Z,8.17
2023-03-19T00:35:30.610Z,8.15
2023-03-19T00:37:58.478Z,8.01
2023-03-19T00:40:26.287Z,7.89
2023-03-19T00:42:53.878Z,7.86
2023-03-19T00:45:21.886Z,7.84
2023-03-19T00:47:49.927Z,7.78
2023-03-19T00:50:17.476Z,7.80
2023-03-19T00:52:44.937Z,7.76
2023-03-19T00:55:12.730Z,7.79
2023-03-19T00:57:40.417Z,7.74
2023-03-19T01:00:08.927Z,7.74
2023-03-19T01:02:36.962Z,7.74
2023-03-19T01:05:04.695Z,7.78
2023-03-19T01:07:33.184Z,7.75
2023-03-19T01:10:01.029Z,7.70
2023-03-19T01:12:28.741Z,7.67
2023-03-19T01:14:56.494Z,7.69
2023-03-19T01:17:24.230Z,7.67
2023-03-19T01:19:51.758Z,7.63
2023-03-19T01:22:19.451Z,7.66
2023-03-19T01:24:53.234Z,7.64
2023-03-19T01:27:21.439Z,7.73
2023-03-19T01:29:50.955Z,7.67
2023-03-19T01:32:29.456Z,7.77
2023-03-19T01:35:13.990Z,7.80
2023-03-19T01:37:41.948Z,7.75
2023-03-19T01:40:13.364Z,7.67
2023-03-19T01:42:55.598Z,7.58
2023-03-19T01:45:43.400Z,7.44
2023-03-19T01:48:34.301Z,7.32
2023-03-19T01:51:11.252Z,7.20
2023-03-19T01:54:10.628Z,7.04
2023-03-19T01:56:48.446Z,6.98
2023-03-19T01:59:37.565Z,7.00
2023-03-19T02:02:35.509Z,7.02
2023-03-19T02:05:25.617Z,7.05
2023-03-19T02:08:03.524Z,7.15
2023-03-19T02:10:32.481Z,7.21
2023-03-19T02:13:00.232Z,7.26
2023-03-19T02:15:28.237Z,7.28
2023-03-19T02:17:56.077Z,7.34
2023-03-19T02:20:43.351Z,7.36
2023-03-19T02:23:36.446Z,7.36
2023-03-19T02:26:16.308Z,7.37
2023-03-19T02:28:48.016Z,7.36
2023-03-19T02:31:20.988Z,7.25
2023-03-19T02:34:26.823Z,7.28
2023-03-19T02:37:01.110Z,7.26
2023-03-19T02:39:40.560Z,7.39
2023-03-19T02:42:11.315Z,7.25
2023-03-19T02:44:38.897Z,7.26
2023-03-19T02:47:09.661Z,7.17
2023-03-19T02:49:37.284Z,7.03
2023-03-19T02:52:05.211Z,7.00
2023-03-19T02:54:32.753Z,7.01
2023-03-19T02:57:00.326Z,7.05
2023-03-19T02:59:27.874Z,7.11
2023-03-19T03:01:55.453Z,7.07
2023-03-19T03:04:22.961Z,7.03
2023-03-19T03:06:50.430Z,7.03
2023-03-19T03:09:18.482Z,7.02
2023-03-19T03:11:46.260Z,6.96
2023-03-19T03:14:13.932Z,7.01
2023-03-19T03:16:44.571Z,7.02
2023-03-19T03:19:12.245Z,7.01
2023-03-19T03:21:39.926Z,7.02
2023-03-19T03:24:07.804Z,6.99
2023-03-19T03:26:38.927Z,6.98
2023-03-19T03:29:06.866Z,6.97
2023-03-19T03:31:35.069Z,6.87
2023-03-19T03:34:03.213Z,6.90
2023-03-19T03:36:32.572Z,6.97
2023-03-19T03:39:00.130Z,6.83
2023-03-19T03:41:27.729Z,6.77
2023-03-19T03:43:55.678Z,6.74
2023-03-19T03:46:24.429Z,6.66
2023-03-19T03:48:53.409Z,6.66
2023-03-19T03:51:21.785Z,6.64
2023-03-19T03:53:49.408Z,6.62
2023-03-19T03:56:16.931Z,6.62
2023-03-19T03:58:44.700Z,6.62
2023-03-19T04:01:19.527Z,6.61
2023-03-19T04:03:52.171Z,6.54
2023-03-19T04:06:22.821Z,6.46
2023-03-19T04:09:03.371Z,6.39
2023-03-19T04:11:33.965Z,6.36
2023-03-19T04:14:03.403Z,6.34
2023-03-19T04:16:33.518Z,6.35
2023-03-19T04:19:01.427Z,6.37
2023-03-19T04:21:30.225Z,6.34
2023-03-19T04:23:58.064Z,6.33
2023-03-19T04:26:25.733Z,6.27
2023-03-19T04:28:53.415Z,6.27
2023-03-19T04:31:21.037Z,6.24
2023-03-19T04:33:49.714Z,6.22
2023-03-19T04:36:18.063Z,6.16
2023-03-19T04:38:45.759Z,6.22
2023-03-19T04:41:16.379Z,6.19
2023-03-19T04:43:57.085Z,6.18
2023-03-19T04:46:24.935Z,6.12
2023-03-19T04:48:52.400Z,6.06
2023-03-19T04:51:21.735Z,6.07
2023-03-19T04:53:49.811Z,6.09
2023-03-19T04:56:18.522Z,6.11
2023-03-19T04:58:46.667Z,6.14
2023-03-19T05:01:14.179Z,6.14
2023-03-19T05:04:03.916Z,6.08
2023-03-19T05:06:34.073Z,6.14
2023-03-19T05:09:01.936Z,6.07
2023-03-19T05:11:29.501Z,5.98
2023-03-19T05:14:19.686Z,5.97
2023-03-19T05:16:59.986Z,6.03
2023-03-19T05:19:34.297Z,6.02
2023-03-19T05:22:02.093Z,6.02
2023-03-19T05:24:29.939Z,6.09
2023-03-19T05:26:58.432Z,6.16
2023-03-19T05:29:26.783Z,6.23
2023-03-19T05:32:17.677Z,6.20
2023-03-19T05:34:45.410Z,6.14
2023-03-19T05:37:13.964Z,6.13
2023-03-19T05:39:42.892Z,6.15
2023-03-19T05:42:11.513Z,6.15
2023-03-19T05:44:39.272Z,6.22
2023-03-19T05:47:18.423Z,6.31
2023-03-19T05:49:53.401Z,6.44
2023-03-19T05:52:21.374Z,6.44
2023-03-19T05:54:50.786Z,6.47
2023-03-19T05:57:41.389Z,6.43
2023-03-19T06:00:18.798Z,6.54
2023-03-19T06:02:48.224Z,6.65
2023-03-19T06:05:34.455Z,6.90
2023-03-19T06:08:18.060Z,6.95
2023-03-19T06:11:04.627Z,7.23
2023-03-19T06:13:34.049Z,7.33
2023-03-19T06:16:07.718Z,7.46
2023-03-19T06:18:42.241Z,7.46
2023-03-19T06:21:12.668Z,7.39
2023-03-19T06:23:40.344Z,7.43
2023-03-19T06:26:09.372Z,7.48
2023-03-19T06:28:44.845Z,7.63
2023-03-19T06:31:13.744Z,7.91
2023-03-19T06:33:57.665Z,8.14
2023-03-19T06:36:31.128Z,8.24
2023-03-19T06:38:59.628Z,8.35
2023-03-19T06:41:27.455Z,8.37
2023-03-19T06:44:02.570Z,8.52
2023-03-19T06:46:30.665Z,8.56
2023-03-19T06:48:58.142Z,8.75
2023-03-19T06:51:27.985Z,8.82
2023-03-19T06:53:56.703Z,8.88
2023-03-19T06:56:24.149Z,8.82
2023-03-19T06:58:52.020Z,8.82
2023-03-19T07:01:19.496Z,8.83
2023-03-19T07:03:47.000Z,8.97
2023-03-19T07:06:14.543Z,9.14
2023-03-19T07:08:46.316Z,9.29
2023-03-19T07:11:14.998Z,9.50
2023-03-19T07:13:42.990Z,9.62
2023-03-19T07:16:10.548Z,9.71
2023-03-19T07:18:38.599Z,9.72
2023-03-19T07:21:06.147Z,9.78
2023-03-19T07:23:33.598Z,10.01
2023-03-19T07:26:01.096Z,10.22
2023-03-19T07:28:28.590Z,10.28
2023-03-19T07:30:56.472Z,10.26
2023-03-19T07:33:23.974Z,10.47
2023-03-19T07:35:51.904Z,10.51
2023-03-19T07:38:19.414Z,10.66
2023-03-19T07:41:00.910Z,10.75
2023-03-19T07:43:29.525Z,10.58
2023-03-19T07:45:57.499Z,10.54
2023-03-19T07:48:24.998Z,10.70
2023-03-19T07:50:52.781Z,10.89
2023-03-19T07:53:20.852Z,10.68
2023-03-19T07:55:49.053Z,10.60
2023-03-19T07:58:17.136Z,10.74
2023-03-19T08:00:45.389Z,10.83
2023-03-19T08:03:13.239Z,10.68
2023-03-19T08:05:40.943Z,10.48
2023-03-19T08:08:09.367Z,10.50
2023-03-19T08:10:38.592Z,10.42
2023-03-19T08:13:06.937Z,10.32
2023-03-19T08:15:34.923Z,10.41
2023-03-19T08:18:05.177Z,10.55
2023-03-19T08:20:33.263Z,10.59
2023-03-19T08:23:01.034Z,10.75
2023-03-19T08:25:32.629Z,11.07
2023-03-19T08:28:01.156Z,11.16
2023-03-19T08:30:29.174Z,11.49
2023-03-19T08:32:56.848Z,11.62
2023-03-19T08:35:27.190Z,12.07
2023-03-19T08:37:55.534Z,12.42
2023-03-19T08:40:23.965Z,12.70
2023-03-19T08:42:51.459Z,12.88
2023-03-19T08:45:19.304Z,13.01
2023-03-19T08:47:46.801Z,13.25
2023-03-19T08:50:14.763Z,13.48
2023-03-19T08:52:42.534Z,13.36
2023-03-19T08:55:10.701Z,13.71
2023-03-19T08:57:38.177Z,13.75
2023-03-19T09:00:06.444Z,13.91
2023-03-19T09:02:34.024Z,14.04
2023-03-19T09:05:01.491Z,13.95
2023-03-19T09:07:29.201Z,13.65
2023-03-19T09:09:56.612Z,13.84
2023-03-19T09:12:24.347Z,14.00
2023-03-19T09:14:51.956Z,14.36
2023-03-19T09:17:19.485Z,14.59
2023-03-19T09:19:46.947Z,14.75
2023-03-19T09:22:14.582Z,14.91
2023-03-19T09:24:42.112Z,15.14
2023-03-19T09:27:09.531Z,15.36
2023-03-19T09:29:36.995Z,15.52
2023-03-19T09:32:04.602Z,15.55
2023-03-19T09:34:32.056Z,15.93
2023-03-19T09:36:59.574Z,15.87
2023-03-19T09:39:26.996Z,16.18
2023-03-19T09:42:12.978Z,16.34
2023-03-19T09:44:44.368Z,16.44
2023-03-19T09:47:34.342Z,16.46
2023-03-19T09:50:11.504Z,16.22
2023-03-19T09:53:09.985Z,15.79
2023-03-19T09:55:44.519Z,15.68
2023-03-19T09:58:36.445Z,15.52
2023-03-19T10:01:05.024Z,15.44
2023-03-19T10:03:38.407Z,15.56
2023-03-19T10:06:21.351Z,15.52
2023-03-19T10:09:15.201Z,15.79
2023-03-19T10:12:01.388Z,15.77
2023-03-19T10:14:55.483Z,15.49
2023-03-19T10:17:29.366Z,15.72
2023-03-19T10:20:16.058Z,15.57
2023-03-19T10:22:51.807Z,15.82
2023-03-19T10:25:26.184Z,15.74
2023-03-19T10:28:01.948Z,15.96
2023-03-19T10:30:33.814Z,16.08
2023-03-19T10:33:26.451Z,15.81
2023-03-19T10:36:02.293Z,15.58
2023-03-19T10:38:31.159Z,15.52
2023-03-19T10:41:43.555Z,15.76
2023-03-19T10:44:29.467Z,15.99
2023-03-19T10:47:11.105Z,15.18
2023-03-19T10:49:38.772Z,14.64
2023-03-19T10:52:17.280Z,14.22
2023-03-19T10:54:46.162Z,14.07
2023-03-19T10:57:26.566Z,14.14
2023-03-19T10:59:54.720Z,14.12
2023-03-19T11:02:27.572Z,14.06
2023-03-19T11:05:23.809Z,14.23
2023-03-19T11:07:57.119Z,14.15
2023-03-19T11:10:30.184Z,14.00
2023-03-19T11:13:13.616Z,14.07
2023-03-19T11:15:41.491Z,14.13
2023-03-19T11:18:19.601Z,14.25
2023-03-19T11:20:55.740Z,14.33
2023-03-19T11:23:23.313Z,14.70
2023-03-19T11:25:53.186Z,15.16
2023-03-19T11:28:26.947Z,15.62
2023-03-19T11:30:54.556Z,15.92
2023-03-19T11:33:50.553Z,16.04
2023-03-19T11:36:22.565Z,16.04
2023-03-19T11:39:00.820Z,15.63
2023-03-19T11:42:13.145Z,15.22
2023-03-19T11:44:52.906Z,15.09
2023-03-19T11:47:28.297Z,14.89
2023-03-19T11:50:08.469Z,14.83
2023-03-19T11:52:59.352Z,14.71
2023-03-19T11:55:38.609Z,14.62
2023-03-19T11:58:18.211Z,14.66
2023-03-19T12:00:54.067Z,14.54
2023-03-19T12:03:22.126Z,14.73
2023-03-19T12:05:59.921Z,14.93
2023-03-19T12:08:37.767Z,15.26
2023-03-19T12:11:35.648Z,15.51
2023-03-19T12:14:23.560Z,15.42
2023-03-19T12:17:15.980Z,15.48
2023-03-19T12:20:17.223Z,15.66
2023-03-19T12:23:23.212Z,15.80
2023-03-19T12:26:04.707Z,15.86
2023-03-19T12:28:41.927Z,15.47
2023-03-19T12:31:31.291Z,15.02
2023-03-19T12:34:05.272Z,14.94
2023-03-19T12:36:36.365Z,15.04
2023-03-19T12:39:30.935Z,14.83
2023-03-19T12:41:58.989Z,15.08
2023-03-19T12:44:37.708Z,15.12
2023-03-19T12:47:10.803Z,15.12
2023-03-19T12:49:46.449Z,15.50
2023-03-19T12:52:38.051Z,15.64
2023-03-19T12:55:25.800Z,15.53
2023-03-19T12:58:04.017Z,15.49
2023-03-19T13:00:43.403Z,15.29
2023-03-19T13:03:18.959Z,15.05
2023-03-19T13:06:05.112Z,14.73
2023-03-19T13:08:47.567Z,14.55
2023-03-19T13:11:36.542Z,14.53
2023-03-19T13:14:21.987Z,14.50
2023-03-19T13:17:12.378Z,14.56
2023-03-19T13:19:57.234Z,14.57
2023-03-19T13:22:32.206Z,14.68
2023-03-19T13:25:02.039Z,14.63
2023-03-19T13:27:36.857Z,14.56
2023-03-19T13:30:10.328Z,14.60
2023-03-19T13:32:46.015Z,14.49
2023-03-19T13:35:16.656Z,14.51
2023-03-19T13:37:44.696Z,14.49
2023-03-19T13:40:54.614Z,14.48
2023-03-19T13:43:31.326Z,14.39
2023-03-19T13:46:13.789Z,14.47
2023-03-19T13:48:47.781Z,14.53
2023-03-19T13:51:25.336Z,14.61
2023-03-19T13:53:53.904Z,14.53
2023-03-19T13:56:30.050Z,14.51
2023-03-19T13:59:24.410Z,14.46
2023-03-19T14:01:51.992Z,14.50
2023-03-19T14:04:29.464Z,14.48
2023-03-19T14:07:13.455Z,14.43
2023-03-19T14:09:45.076Z,14.44
2023-03-19T14:12:18.566Z,14.37
2023-03-19T14:14:53.941Z,14.22
2023-03-19T14:17:35.035Z,14.39
2023-03-19T14:20:12.543Z,14.46
2023-03-19T14:22:58.277Z,14.40
2023-03-19T14:25:28.035Z,14.34
2023-03-19T14:28:02.394Z,14.31
2023-03-19T14:30:37.951Z,14.34
2023-03-19T14:33:15.548Z,14.41
2023-03-19T14:35:47.150Z,14.38
2023-03-19T14:38:29.496Z,14.36
2023-03-19T14:41:01.270Z,14.30
2023-03-19T14:43:53.603Z,14.35
2023-03-19T14:46:41.877Z,14.37
2023-03-19T14:49:46.618Z,14.47
2023-03-19T14:52:23.533Z,14.55
2023-03-19T14:54:55.977Z,14.57
2023-03-19T14:57:28.044Z,14.49
2023-03-19T14:59:56.714Z,14.47
2023-03-19T15:02:39.266Z,14.38
2023-03-19T15:05:18.926Z,14.48
2023-03-19T15:07:49.649Z,14.56
2023-03-19T15:10:27.915Z,14.53
2023-03-19T15:13:11.292Z,14.43
2023-03-19T15:16:00.784Z,14.26
2023-03-19T15:18:28.809Z,14.28
2023-03-19T15:20:57.002Z,14.30
2023-03-19T15:23:28.942Z,14.29
2023-03-19T15:26:02.047Z,14.18
2023-03-19T15:28:44.764Z,14.21
2023-03-19T15:31:30.433Z,14.19
2023-03-19T15:34:01.010Z,14.27
2023-03-19T15:36:31.769Z,14.34
2023-03-19T15:39:06.111Z,14.48
2023-03-19T15:41:40.437Z,14.54
2023-03-19T15:44:14.649Z,14.49
2023-03-19T15:46:44.725Z,14.48
2023-03-19T15:49:20.165Z,14.42
2023-03-19T15:51:53.502Z,14.41
2023-03-19T15:54:21.880Z,14.40
2023-03-19T15:56:51.326Z,14.43
2023-03-19T15:59:22.292Z,14.38
2023-03-19T16:01:51.163Z,14.40
2023-03-19T16:04:25.584Z,14.14
2023-03-19T16:06:53.324Z,14.03
2023-03-19T16:09:24.869Z,13.84
2023-03-19T16:11:54.299Z,13.77
2023-03-19T16:14:25.372Z,13.69
2023-03-19T16:16:59.984Z,13.48
2023-03-19T16:19:32.260Z,13.42
2023-03-19T16:22:01.115Z,13.27
2023-03-19T16:24:51.320Z,13.17
2023-03-19T16:27:21.591Z,13.08
2023-03-19T16:29:57.617Z,12.95
2023-03-19T16:32:27.088Z,12.75
2023-03-19T16:35:06.287Z,12.73
2023-03-19T16:37:33.933Z,12.68
2023-03-19T16:40:24.482Z,12.52
2023-03-19T16:43:06.190Z,12.43
2023-03-19T16:45:35.389Z,12.24
2023-03-19T16:48:03.697Z,12.20
2023-03-19T16:50:43.617Z,11.98
2023-03-19T16:53:22.627Z,11.79
2023-03-19T16:55:51.063Z,11.77
2023-03-19T16:58:27.217Z,11.66
2023-03-19T17:00:54.904Z,11.73
2023-03-19T17:03:22.317Z,11.63
2023-03-19T17:05:49.963Z,11.61
2023-03-19T17:08:17.569Z,11.60
2023-03-19T17:10:49.324Z,11.56
2023-03-19T17:13:28.215Z,11.53
2023-03-19T17:16:02.871Z,11.51
2023-03-19T17:18:35.218Z,11.45
2023-03-19T17:21:21.578Z,11.34
2023-03-19T17:23:49.721Z,11.25
2023-03-19T17:26:23.261Z,11.19
2023-03-19T17:28:50.812Z,11.15
2023-03-19T17:31:30.405Z,11.13
2023-03-19T17:34:12.826Z,11.11
2023-03-19T17:36:40.806Z,11.09
2023-03-19T17:39:11.400Z,11.06
2023-03-19T17:41:38.955Z,10.96
2023-03-19T17:44:06.784Z,10.96
2023-03-19T17:46:39.762Z,10.94
2023-03-19T17:49:20.704Z,10.87
2023-03-19T17:51:48.997Z,10.84
2023-03-19T17:54:16.470Z,10.86
2023-03-19T17:56:43.927Z,10.81
2023-03-19T17:59:12.184Z,10.81
2023-03-19T18:01:43.719Z,10.82
2023-03-19T18:04:15.057Z,10.79
2023-03-19T18:06:45.798Z,10.79
2023-03-19T18:09:22.357Z,10.78
2023-03-19T18:11:50.272Z,10.75
2023-03-19T18:14:18.014Z,10.67
2023-03-19T18:16:46.987Z,10.65
2023-03-19T18:19:37.849Z,10.60
2023-03-19T18:22:17.042Z,10.56
2023-03-19T18:24:44.952Z,10.54
2023-03-19T18:27:13.430Z,10.50
2023-03-19T18:29:40.979Z,10.43
2023-03-19T18:32:16.430Z,10.44
2023-03-19T18:34:44.126Z,10.45
2023-03-19T18:37:17.047Z,10.42
2023-03-19T18:39:45.154Z,10.42
2023-03-19T18:42:13.468Z,10.46
2023-03-19T18:44:40.978Z,10.49
2023-03-19T18:47:16.478Z,10.46
2023-03-19T18:49:44.821Z,10.43
2023-03-19T18:52:19.142Z,10.52
2023-03-19T18:54:47.211Z,10.43
2023-03-19T18:57:16.205Z,10.56
2023-03-19T18:59:43.893Z,10.57
2023-03-19T19:02:32.623Z,10.48
2023-03-19T19:05:00.819Z,10.53
2023-03-19T19:07:28.364Z,10.52
2023-03-19T19:09:55.947Z,10.53
2023-03-19T19:12:24.816Z,10.58
2023-03-19T19:14:52.385Z,10.63
2023-03-19T19:17:24.175Z,10.57
2023-03-19T19:19:51.810Z,10.61
2023-03-19T19:22:20.536Z,10.62
2023-03-19T19:24:48.075Z,10.62
2023-03-19T19:27:22.048Z,10.63
2023-03-19T19:29:50.396Z,10.61
2023-03-19T19:32:27.320Z,10.57
2023-03-19T19:34:55.178Z,10.57
2023-03-19T19:37:23.763Z,10.55
2023-03-19T19:39:51.778Z,10.56
2023-03-19T19:42:22.413Z,10.55
2023-03-19T19:44:59.043Z,10.57
2023-03-19T19:47:27.849Z,10.53
2023-03-19T19:49:56.612Z,10.52
2023-03-19T19:52:24.113Z,10.51
2023-03-19T19:54:52.041Z,10.57
2023-03-19T19:57:23.152Z,10.58
2023-03-19T19:59:52.077Z,10.58
2023-03-19T20:02:31.174Z,10.55
2023-03-19T20:04:58.897Z,10.58
2023-03-19T20:07:27.257Z,10.54
2023-03-19T20:09:54.743Z,10.54
2023-03-19T20:12:26.609Z,10.38
2023-03-19T20:14:54.167Z,10.42
2023-03-19T20:17:21.618Z,10.40
2023-03-19T20:19:49.366Z,10.32
2023-03-19T20:22:17.109Z,10.27
2023-03-19T20:24:45.552Z,10.31
2023-03-19T20:27:33.706Z,10.31
2023-03-19T20:30:01.662Z,10.33
2023-03-19T20:32:33.183Z,10.30
2023-03-19T20:35:01.237Z,10.29
2023-03-19T20:37:29.061Z,10.29
2023-03-19T20:39:56.887Z,10.27
2023-03-19T20:42:25.593Z,10.28
2023-03-19T20:44:58.189Z,10.29
2023-03-19T20:47:26.097Z,10.29
2023-03-19T20:49:54.094Z,10.21
2023-03-19T20:52:21.640Z,10.23
2023-03-19T20:54:49.135Z,10.29
2023-03-19T20:57:21.402Z,10.32
2023-03-19T20:59:48.940Z,10.34
2023-03-19T21:02:18.675Z,10.37
2023-03-19T21:04:47.714Z,10.37
2023-03-19T21:07:27.579Z,10.39
2023-03-19T21:09:58.679Z,10.38
2023-03-19T21:12:32.440Z,10.35
2023-03-19T21:15:01.364Z,10.32
2023-03-19T21:17:28.887Z,10.35
2023-03-19T21:19:56.990Z,10.32
2023-03-19T21:22:28.812Z,10.30
2023-03-19T21:25:06.135Z,10.28
2023-03-19T21:27:36.781Z,10.28
2023-03-19T21:30:08.054Z,10.26
2023-03-19T21:32:35.685Z,10.24
2023-03-19T21:35:03.138Z,10.25
2023-03-19T21:37:30.639Z,10.28
2023-03-19T21:39:58.023Z,10.24
2023-03-19T21:42:31.902Z,10.22
2023-03-19T21:44:59.740Z,10.12
2023-03-19T21:47:27.139Z,10.11
2023-03-19T21:49:55.697Z,10.10
2023-03-19T21:52:23.202Z,10.02
2023-03-19T21:54:51.216Z,9.94
2023-03-19T21:57:18.781Z,9.94
2023-03-19T21:59:47.137Z,9.96
2023-03-19T22:02:23.635Z,9.95
2023-03-19T22:04:51.155Z,9.98
2023-03-19T22:07:18.646Z,10.03
2023-03-19T22:09:46.178Z,10.01
2023-03-19T22:12:27.613Z,9.96
2023-03-19T22:14:55.492Z,9.92
2023-03-19T22:17:25.862Z,9.87
2023-03-19T22:19:53.490Z,9.85
2023-03-19T22:22:20.934Z,9.77
2023-03-19T22:24:48.503Z,9.73
2023-03-19T22:27:17.426Z,9.69
2023-03-19T22:29:46.237Z,9.70
2023-03-19T22:32:18.515Z,9.74
2023-03-19T22:34:46.118Z,9.74
2023-03-19T22:37:26.488Z,9.71
2023-03-19T22:39:54.753Z,9.65
2023-03-19T22:42:26.418Z,9.59
2023-03-19T22:44:54.848Z,9.50
2023-03-19T22:47:25.234Z,9.51
2023-03-19T22:49:52.768Z,9.51
2023-03-19T22:52:20.146Z,9.51
2023-03-19T22:54:48.098Z,9.52
2023-03-19T22:57:15.873Z,9.56
2023-03-19T22:59:44.072Z,9.67
2023-03-19T23:02:14.927Z,9.72
2023-03-19T23:04:42.427Z,9.75
2023-03-19T23:07:12.674Z,9.72
2023-03-19T23:09:40.540Z,9.75
2023-03-19T23:14:36.927Z,9.79
2023-03-19T23:17:14.482Z,9.80
2023-03-19T23:19:42.027Z,9.79
2023-03-19T23:22:15.295Z,9.81
2023-03-19T23:24:42.805Z,9.81
2023-03-19T23:27:23.305Z,9.75
2023-03-19T23:29:51.225Z,9.77
2023-03-19T23:32:18.670Z,9.73
2023-03-19T23:34:59.181Z,9.77
2023-03-19T23:37:29.216Z,9.76
2023-03-19T23:39:58.035Z,9.78
2023-03-19T23:42:29.113Z,9.77
2023-03-19T23:44:59.518Z,9.73
2023-03-19T23:47:29.016Z,9.74
2023-03-19T23:49:57.057Z,9.74
2023-03-19T23:52:24.553Z,9.74
2023-03-19T23:54:52.588Z,9.75
2023-03-19T23:57:22.352Z,9.77
2023-03-19T23:59:52.394Z,9.79
